Weather History for Staples, MN

Change the Weather History Date:

Saturday, January 11, 2014

  Actual Average Record
Temperature  
Mean Temperature 20 °F -  
Max Temperature 26 °F 15 °F 39 °F (2002)
Min Temperature 15 °F 0 °F -14 °F (1997)
Degree Days  
Heating Degree Days 44    
Moisture  
Dew Point 19 °F    
Average Humidity 95    
Maximum Humidity 100    
Minimum Humidity 80    
Precipitation  
Precipitation 0.00 in - - ()
Sea Level Pressure  
Sea Level Pressure 29.54 in    
Wind  
Wind Speed 5 mph (West)    
Max Wind Speed 12 mph    
Max Gust Speed -    
Visibility 7 miles    
Events Fog    
Averages and records for this station are not official NWS values.
T = Trace of Precipitation, MM = Missing Value Source: NWS Daily Summary

Daily Weather History Graph

Daily Weather History Graph

Search for Another Location

Airport:

Trip Planner

Search our weather history database for the weather conditions in past years. The results will help you decide how hot, cold, wet, or windy it might be!

Date:

Astronomy

Jan. 11, 2014 Rise Set
Actual Time 8:00 AM CST 4:54 PM CST
Civil Twilight 7:26 AM CST 5:28 PM CST
Nautical Twilight 6:48 AM CST 6:05 PM CST
Astronomical Twilight 6:12 AM CST 6:42 PM CST
Moon 1:41 PM CST (1/11) 4:02 AM CST (1/11)
Length of Visible Light 10h 01m
Length of Day
8h 53m
Waxing Gibbous, 83% of the Moon is Illuminated
Jan 11
Waxing Gibbous
Jan 15
Full
Jan 23
Last Quarter
Jan 30
New
Feb 6
First Quarter

Hourly Weather History & Observations

Time (CST) Temp. Windchill Dew Point Humidity Pressure Visibility Wind Dir Wind Speed Gust Speed Precip Events Conditions
12:14 AM 24.8 °F 19.1 °F 24.8 °F 100% 29.44 in 3.0 mi West 4.6 mph - N/A   Overcast
12:33 AM 23.0 °F 18.4 °F 23.0 °F 100% 29.44 in 3.0 mi West 3.5 mph - N/A   Overcast
12:53 AM 21.2 °F - 21.2 °F 100% 29.43 in 2.5 mi Calm Calm - N/A   Mostly Cloudy
1:13 AM 19.4 °F - 19.4 °F 100% 29.44 in 2.0 mi Calm Calm - N/A   Mostly Cloudy
1:33 AM 17.6 °F - 15.8 °F 93% 29.43 in 0.2 mi Calm Calm - N/A Fog Light Freezing Fog
1:54 AM 15.8 °F - 15.8 °F 100% 29.44 in 0.2 mi Calm Calm - N/A Fog Light Freezing Fog
2:13 AM 15.8 °F - 15.8 °F 100% 29.44 in 0.2 mi Calm Calm - N/A Fog Light Freezing Fog
2:33 AM 17.6 °F - 17.6 °F 100% 29.44 in 5.0 mi Calm Calm - N/A   Mostly Cloudy
2:54 AM 17.6 °F 12.3 °F 15.8 °F 93% 29.45 in 7.0 mi West 3.5 mph - N/A   Overcast
3:13 AM 17.6 °F 10.7 °F 17.6 °F 100% 29.45 in 10.0 mi West 4.6 mph - N/A   Overcast
3:33 AM 19.4 °F 12.8 °F 17.6 °F 93% 29.45 in 10.0 mi WNW 4.6 mph - N/A   Overcast
3:54 AM 19.4 °F 11.5 °F 19.4 °F 100% 29.45 in 10.0 mi WNW 5.8 mph - N/A   Overcast
4:13 AM 21.2 °F 13.6 °F 19.4 °F 93% 29.46 in 7.0 mi WNW 5.8 mph - N/A   Overcast
4:33 AM 21.2 °F 13.6 °F 21.2 °F 100% 29.46 in 3.0 mi WNW 5.8 mph - N/A   Overcast
4:54 AM 21.2 °F 14.9 °F 21.2 °F 100% 29.46 in 2.5 mi WNW 4.6 mph - N/A   Overcast
5:13 AM 21.2 °F 16.4 °F 21.2 °F 100% 29.46 in 3.0 mi West 3.5 mph - N/A   Overcast
5:33 AM 21.2 °F 14.9 °F 21.2 °F 100% 29.47 in 3.0 mi West 4.6 mph - N/A   Overcast
5:54 AM 21.2 °F 14.9 °F 21.2 °F 100% 29.47 in 3.0 mi West 4.6 mph - N/A   Overcast
6:13 AM 23.0 °F 17.0 °F 23.0 °F 100% 29.48 in 5.0 mi WNW 4.6 mph - N/A   Overcast
6:33 AM 23.0 °F 13.9 °F 23.0 °F 100% 29.49 in 7.0 mi WNW 8.1 mph - N/A   Overcast
6:54 AM 23.0 °F 13.9 °F 23.0 °F 100% 29.50 in 7.0 mi WNW 8.1 mph - N/A   Overcast
7:13 AM 21.2 °F 10.1 °F 21.2 °F 100% 29.52 in 7.0 mi NW 10.4 mph - N/A   Overcast
7:33 AM 21.2 °F 11.7 °F 21.2 °F 100% 29.53 in 10.0 mi NW 8.1 mph - N/A   Overcast
7:54 AM 21.2 °F 11.7 °F 19.4 °F 93% 29.53 in 10.0 mi NW 8.1 mph - N/A   Overcast
8:13 AM 19.4 °F 9.5 °F 19.4 °F 100% 29.54 in 7.0 mi NW 8.1 mph - N/A   Overcast
8:33 AM 21.2 °F 13.6 °F 19.4 °F 93% 29.54 in 7.0 mi NW 5.8 mph - N/A   Overcast
8:54 AM 21.2 °F 12.6 °F 21.2 °F 100% 29.55 in 7.0 mi NW 6.9 mph - N/A   Overcast
9:13 AM 21.2 °F 14.9 °F 21.2 °F 100% 29.55 in 7.0 mi WNW 4.6 mph - N/A   Overcast
9:33 AM 21.2 °F 14.9 °F 21.2 °F 100% 29.57 in 5.0 mi West 4.6 mph - N/A   Overcast
9:53 AM 21.2 °F 13.6 °F 19.4 °F 93% 29.58 in 5.0 mi WNW 5.8 mph - N/A   Overcast
10:13 AM 21.2 °F 12.6 °F 19.4 °F 93% 29.59 in 5.0 mi WNW 6.9 mph - N/A   Overcast
10:33 AM 21.2 °F 13.6 °F 19.4 °F 93% 29.60 in 7.0 mi WNW 5.8 mph - N/A   Overcast
10:53 AM 21.2 °F 12.6 °F 19.4 °F 93% 29.60 in 7.0 mi WNW 6.9 mph - N/A   Overcast
11:13 AM 21.2 °F 10.9 °F 19.4 °F 93% 29.60 in 7.0 mi WNW 9.2 mph - N/A   Overcast
11:33 AM 21.2 °F 10.9 °F 19.4 °F 93% 29.60 in 7.0 mi West 9.2 mph - N/A   Overcast
11:53 AM 21.2 °F 10.9 °F 19.4 °F 93% 29.59 in 7.0 mi WNW 9.2 mph - N/A   Overcast
12:13 PM 21.2 °F 11.7 °F 19.4 °F 93% 29.59 in 7.0 mi West 8.1 mph - N/A   Overcast
12:33 PM 21.2 °F 11.7 °F 21.2 °F 100% 29.58 in 7.0 mi West 8.1 mph - N/A   Overcast
12:54 PM 23.0 °F 12.4 °F 21.2 °F 93% 29.58 in 7.0 mi West 10.4 mph - N/A   Overcast
1:13 PM 23.0 °F 12.4 °F 21.2 °F 93% 29.57 in 7.0 mi West 10.4 mph - N/A   Overcast
1:33 PM 24.8 °F 15.3 °F 21.2 °F 86% 29.57 in 7.0 mi West 9.2 mph - N/A   Overcast
1:54 PM 23.0 °F 11.7 °F 21.2 °F 93% 29.57 in 7.0 mi West 11.5 mph - N/A   Overcast
2:13 PM 23.0 °F 12.4 °F 21.2 °F 93% 29.57 in 10.0 mi West 10.4 mph - N/A   Overcast
2:33 PM 24.8 °F 15.3 °F 21.2 °F 86% 29.57 in 10.0 mi West 9.2 mph - N/A   Overcast
2:54 PM 24.8 °F 17.9 °F 21.2 °F 86% 29.57 in 10.0 mi West 5.8 mph - N/A   Mostly Cloudy
3:13 PM 26.6 °F 20.0 °F 21.2 °F 80% 29.58 in 10.0 mi WSW 5.8 mph - N/A   Scattered Clouds
3:33 PM 26.6 °F 18.2 °F 21.2 °F 80% 29.58 in 10.0 mi West 8.1 mph - N/A   Clear
3:54 PM 26.6 °F 18.2 °F 21.2 °F 80% 29.59 in 10.0 mi West 8.1 mph - N/A   Clear
4:13 PM 26.6 °F 17.5 °F 21.2 °F 80% 29.59 in 10.0 mi West 9.2 mph - N/A   Clear
4:33 PM 24.8 °F 16.9 °F 19.4 °F 80% 29.59 in 10.0 mi West 6.9 mph - N/A   Clear
4:54 PM 21.2 °F 14.9 °F 17.6 °F 86% 29.59 in 10.0 mi West 4.6 mph - N/A   Clear
5:13 PM 17.6 °F 9.3 °F 15.8 °F 93% 29.59 in 10.0 mi West 5.8 mph - N/A   Clear
5:33 PM 19.4 °F - 17.6 °F 93% 29.60 in 10.0 mi Calm Calm - N/A   Clear
5:54 PM 19.4 °F 14.3 °F 17.6 °F 93% 29.60 in 10.0 mi SW 3.5 mph - N/A   Clear
6:13 PM 17.6 °F - 15.8 °F 93% 29.60 in 10.0 mi Calm Calm - N/A   Clear
6:33 PM 17.6 °F 12.3 °F 15.8 °F 93% 29.60 in 10.0 mi SW 3.5 mph - N/A   Clear
6:54 PM 19.4 °F - 17.6 °F 93% 29.59 in 10.0 mi Calm Calm - N/A   Clear
7:13 PM 17.6 °F - 17.6 °F 100% 29.59 in 7.0 mi Calm Calm - N/A   Clear
7:33 PM 17.6 °F 12.3 °F 17.6 °F 100% 29.59 in 7.0 mi SSW 3.5 mph - N/A   Clear
7:53 PM 17.6 °F 12.3 °F 17.6 °F 100% 29.58 in 7.0 mi SSW 3.5 mph - N/A   Clear
8:13 PM 17.6 °F - 17.6 °F 100% 29.57 in 7.0 mi Calm Calm - N/A   Clear
8:34 PM 17.6 °F 12.3 °F 17.6 °F 100% 29.58 in 5.0 mi South 3.5 mph - N/A   Clear
8:53 PM 15.8 °F 10.2 °F 15.8 °F 100% 29.57 in 5.0 mi SSE 3.5 mph - N/A   Clear
9:13 PM 17.6 °F 10.7 °F 15.8 °F 93% 29.57 in 4.0 mi SSE 4.6 mph - N/A   Clear
9:34 PM 15.8 °F 8.6 °F 14.0 °F 93% 29.55 in 5.0 mi SSE 4.6 mph - N/A   Scattered Clouds
9:53 PM 15.8 °F 7.2 °F 15.8 °F 100% 29.55 in 5.0 mi South 5.8 mph - N/A   Overcast
10:13 PM 17.6 °F 9.3 °F 15.8 °F 93% 29.54 in 5.0 mi South 5.8 mph - N/A   Overcast
10:34 PM 17.6 °F 12.3 °F 17.6 °F 100% 29.53 in 5.0 mi SSE 3.5 mph - N/A   Overcast
10:53 PM 17.6 °F 12.3 °F 17.6 °F 100% 29.52 in 5.0 mi SSE 3.5 mph - N/A   Overcast
11:13 PM 19.4 °F 11.5 °F 19.4 °F 100% 29.52 in 5.0 mi South 5.8 mph - N/A   Overcast
11:34 PM 19.4 °F 12.8 °F 19.4 °F 100% 29.51 in 5.0 mi SE 4.6 mph - N/A   Overcast
11:53 PM 19.4 °F 12.8 °F 19.4 °F 100% 29.50 in 5.0 mi SSE 4.6 mph - N/A   Overcast